Witham, United Kingdom
Current Conditions -  °F | °C
As of 12:20 PM on Friday 19 Dec 2014 (Local Time) from EGMC Reporting Station
Few Clouds Few Clouds  
Wind Chill: 50°   Ceiling: Unl
Heat Index: 50°   Visibility: 6mi
Dew Point: 34°   Wind: 15mph
Humidity: 54%   Direction: 280°W
Pressure: 29.97"   Gusts: NA
Location:  51.8°N, 0.64°E
Report Text: EGMC 191220Z 28013KT 250V310 9999 FEW028 10/01 Q1015
Loading
Personal Weather Stations






























Interactive Weather Map New forecast layout! Learn more

10-Day Weather Forecast

Advertisements
Track Severe Weather on mobile